createdAt,value
2022-09-04T00:00:10.383Z,18.41
2022-09-04T00:03:01.613Z,18.37
2022-09-04T00:05:37.452Z,18.36
2022-09-04T00:08:42.312Z,18.33
2022-09-04T00:11:26.711Z,18.29
2022-09-04T00:14:01.533Z,18.28
2022-09-04T00:16:36.794Z,18.22
2022-09-04T00:19:14.138Z,18.23
2022-09-04T00:21:50.953Z,18.20
2022-09-04T00:24:23.340Z,18.17
2022-09-04T00:26:58.834Z,18.15
2022-09-04T00:29:41.550Z,18.10
2022-09-04T00:32:19.067Z,18.06
2022-09-04T00:35:02.496Z,18.03
2022-09-04T00:37:38.415Z,18.02
2022-09-04T00:40:13.299Z,18.00
2022-09-04T00:43:06.628Z,17.95
2022-09-04T00:45:55.961Z,17.91
2022-09-04T00:49:17.654Z,17.89
2022-09-04T00:52:01.727Z,17.85
2022-09-04T00:54:58.173Z,17.81
2022-09-04T00:58:00.154Z,17.80
2022-09-04T01:00:30.303Z,17.79
2022-09-04T01:03:44.487Z,17.74
2022-09-04T01:06:32.980Z,17.75
2022-09-04T01:09:41.585Z,17.70
2022-09-04T01:12:27.445Z,17.71
2022-09-04T01:15:11.392Z,17.71
2022-09-04T01:17:52.779Z,17.67
2022-09-04T01:20:35.233Z,17.66
2022-09-04T01:23:23.435Z,17.66
2022-09-04T01:26:10.168Z,17.64
2022-09-04T01:28:54.733Z,17.62
2022-09-04T01:31:36.528Z,17.59
2022-09-04T01:34:24.251Z,17.56
2022-09-04T01:37:01.269Z,17.54
2022-09-04T01:39:33.476Z,17.53
2022-09-04T01:42:10.457Z,17.51
2022-09-04T01:44:38.769Z,17.53
2022-09-04T01:47:17.309Z,17.50
2022-09-04T01:49:52.026Z,17.46
2022-09-04T01:52:37.837Z,17.45
2022-09-04T01:55:20.244Z,17.41
2022-09-04T01:58:07.231Z,17.36
2022-09-04T02:00:47.432Z,17.32
2022-09-04T02:03:26.581Z,17.30
2022-09-04T02:06:08.575Z,17.28
2022-09-04T02:08:57.188Z,17.26
2022-09-04T02:11:29.789Z,17.25
2022-09-04T02:14:27.438Z,17.21
2022-09-04T02:17:11.256Z,17.20
2022-09-04T02:20:05.021Z,17.17
2022-09-04T02:25:29.735Z,17.12
2022-09-04T02:28:14.801Z,17.11
2022-09-04T02:30:54.500Z,17.09
2022-09-04T02:33:32.355Z,17.06
2022-09-04T02:36:08.534Z,17.04
2022-09-04T02:38:48.959Z,17.01
2022-09-04T02:41:29.226Z,16.99
2022-09-04T02:44:17.340Z,16.97
2022-09-04T02:47:02.690Z,16.95
2022-09-04T02:49:42.747Z,16.93
2022-09-04T02:52:33.358Z,16.91
2022-09-04T02:55:25.069Z,16.89
2022-09-04T02:58:11.387Z,16.88
2022-09-04T03:00:49.044Z,16.87
2022-09-04T03:03:22.625Z,16.87
2022-09-04T03:06:01.721Z,16.86
2022-09-04T03:08:37.784Z,16.85
2022-09-04T03:11:15.386Z,16.84
2022-09-04T03:13:53.214Z,16.83
2022-09-04T03:16:31.320Z,16.81
2022-09-04T03:19:17.100Z,16.80
2022-09-04T03:21:52.086Z,16.78
2022-09-04T03:24:29.743Z,16.78
2022-09-04T03:27:02.993Z,16.77
2022-09-04T03:29:40.938Z,16.75
2022-09-04T03:32:17.295Z,16.74
2022-09-04T03:34:55.033Z,16.72
2022-09-04T03:37:47.115Z,16.73
2022-09-04T03:40:28.161Z,16.71
2022-09-04T03:43:21.314Z,16.70
2022-09-04T03:46:02.341Z,16.71
2022-09-04T03:48:55.358Z,16.71
2022-09-04T03:51:40.479Z,16.72
2022-09-04T03:54:28.200Z,16.72
2022-09-04T03:57:21.973Z,16.72
2022-09-04T04:00:07.999Z,16.73
2022-09-04T04:03:07.258Z,16.73
2022-09-04T04:05:49.523Z,16.71
2022-09-04T04:09:03.881Z,16.69
2022-09-04T04:11:53.365Z,16.69
2022-09-04T04:14:52.292Z,16.68
2022-09-04T04:17:44.630Z,16.66
2022-09-04T04:20:24.938Z,16.66
2022-09-04T04:23:17.275Z,16.67
2022-09-04T04:26:03.938Z,16.67
2022-09-04T04:29:00.303Z,16.66
2022-09-04T04:32:10.596Z,16.66
2022-09-04T04:34:57.028Z,16.67
2022-09-04T04:37:39.496Z,16.66
2022-09-04T04:40:17.298Z,16.67
2022-09-04T04:42:55.084Z,16.69
2022-09-04T04:45:47.130Z,16.69
2022-09-04T04:49:07.422Z,16.69
2022-09-04T04:51:53.123Z,16.69
2022-09-04T04:54:51.284Z,16.69
2022-09-04T04:57:31.360Z,16.71
2022-09-04T05:00:11.515Z,16.73
2022-09-04T05:02:53.262Z,16.75
2022-09-04T05:05:54.018Z,16.76
2022-09-04T05:08:35.819Z,16.78
2022-09-04T05:11:12.149Z,16.80
2022-09-04T05:13:52.886Z,16.82
2022-09-04T05:16:33.805Z,16.83
2022-09-04T05:19:09.911Z,16.86
2022-09-04T05:21:48.561Z,16.87
2022-09-04T05:24:25.771Z,16.89
2022-09-04T05:26:59.034Z,16.91
2022-09-04T05:29:37.699Z,16.94
2022-09-04T05:32:17.950Z,16.96
2022-09-04T05:35:05.627Z,17.00
2022-09-04T05:37:43.324Z,17.00
2022-09-04T05:40:23.453Z,17.06
2022-09-04T05:43:07.878Z,17.10
2022-09-04T05:45:50.988Z,17.13
2022-09-04T05:48:26.704Z,17.17
2022-09-04T05:51:08.410Z,17.20
2022-09-04T05:54:10.451Z,17.25
2022-09-04T05:57:14.022Z,17.29
2022-09-04T06:00:09.909Z,17.32
2022-09-04T06:03:42.704Z,17.38
2022-09-04T06:06:22.989Z,17.41
2022-09-04T06:09:27.841Z,17.48
2022-09-04T06:12:30.292Z,17.52
2022-09-04T06:15:41.737Z,17.59
2022-09-04T06:18:45.143Z,17.64
2022-09-04T06:21:49.331Z,17.71
2022-09-04T06:24:34.023Z,17.77
2022-09-04T06:27:39.209Z,17.81
2022-09-04T06:30:10.527Z,17.87
2022-09-04T06:33:32.197Z,17.92
2022-09-04T06:36:25.162Z,17.99
2022-09-04T06:39:27.954Z,18.09
2022-09-04T06:42:16.749Z,18.18
2022-09-04T06:45:02.964Z,18.30
2022-09-04T06:47:52.170Z,18.42
2022-09-04T06:50:33.322Z,18.53
2022-09-04T06:53:21.445Z,18.66
2022-09-04T06:56:08.094Z,18.81
2022-09-04T06:59:15.354Z,18.99
2022-09-04T07:02:01.136Z,19.16
2022-09-04T07:04:46.401Z,19.35
2022-09-04T07:07:28.521Z,19.51
2022-09-04T07:10:09.754Z,19.67
2022-09-04T07:13:19.314Z,19.80
2022-09-04T07:16:18.185Z,19.94
2022-09-04T07:19:18.726Z,20.04
2022-09-04T07:22:03.927Z,20.13
2022-09-04T07:24:56.794Z,20.24
2022-09-04T07:27:41.825Z,20.33
2022-09-04T07:30:13.625Z,20.43
2022-09-04T07:32:50.466Z,20.54
2022-09-04T07:35:25.411Z,20.63
2022-09-04T07:38:01.106Z,20.74
2022-09-04T07:40:38.280Z,20.86
2022-09-04T07:43:21.434Z,20.98
2022-09-04T07:46:00.475Z,21.07
2022-09-04T07:48:36.013Z,21.18
2022-09-04T07:51:10.313Z,21.28
2022-09-04T07:54:20.535Z,21.39
2022-09-04T07:57:21.288Z,21.52
2022-09-04T08:00:13.673Z,21.69
2022-09-04T08:03:26.734Z,21.91
2022-09-04T08:06:02.784Z,22.10
2022-09-04T08:09:04.850Z,22.27
2022-09-04T08:11:59.265Z,22.42
2022-09-04T08:14:52.234Z,22.55
2022-09-04T08:18:05.091Z,22.67
2022-09-04T08:20:47.266Z,22.75
2022-09-04T08:23:56.466Z,22.83
2022-09-04T08:26:37.862Z,22.94
2022-09-04T08:29:33.797Z,23.08
2022-09-04T08:32:18.817Z,23.20
2022-09-04T08:35:06.548Z,23.28
2022-09-04T08:37:51.063Z,23.38
2022-09-04T08:41:06.906Z,23.53
2022-09-04T08:44:13.527Z,23.61
2022-09-04T08:47:33.015Z,23.68
2022-09-04T08:50:34.367Z,23.75
2022-09-04T08:53:39.340Z,23.86
2022-09-04T08:56:20.481Z,23.99
2022-09-04T08:59:39.240Z,24.17
2022-09-04T09:03:03.485Z,24.36
2022-09-04T09:06:15.274Z,24.57
2022-09-04T09:09:44.177Z,24.78
2022-09-04T09:12:56.951Z,24.98
2022-09-04T09:15:50.571Z,25.13
2022-09-04T09:18:40.347Z,25.25
2022-09-04T09:21:15.817Z,25.34
2022-09-04T09:24:22.723Z,25.45
2022-09-04T09:27:05.839Z,25.53
2022-09-04T09:30:03.452Z,25.64
2022-09-04T09:33:25.099Z,25.74
2022-09-04T09:36:29.906Z,25.81
2022-09-04T09:39:33.595Z,25.89
2022-09-04T09:42:48.374Z,26.06
2022-09-04T09:46:13.642Z,26.21
2022-09-04T09:49:26.028Z,26.37
2022-09-04T09:52:33.285Z,26.59
2022-09-04T09:55:58.584Z,26.81
2022-09-04T09:59:06.296Z,27.00
2022-09-04T10:02:14.121Z,27.18
2022-09-04T10:05:11.975Z,27.30
2022-09-04T10:08:35.932Z,27.41
2022-09-04T10:11:45.710Z,27.50
2022-09-04T10:14:52.598Z,27.58
2022-09-04T10:18:18.544Z,27.67
2022-09-04T10:21:20.787Z,27.79
2022-09-04T10:24:24.935Z,27.92
2022-09-04T10:27:49.294Z,28.08
2022-09-04T10:30:20.170Z,28.17
2022-09-04T10:33:29.439Z,28.26
2022-09-04T10:36:10.062Z,28.28
2022-09-04T10:39:02.518Z,28.30
2022-09-04T10:41:53.787Z,28.33
2022-09-04T10:45:04.818Z,28.36
2022-09-04T10:48:21.723Z,28.40
2022-09-04T10:51:36.457Z,28.40
2022-09-04T10:54:59.974Z,28.38
2022-09-04T10:57:49.096Z,28.40
2022-09-04T11:00:20.407Z,28.44
2022-09-04T11:03:41.663Z,28.41
2022-09-04T11:06:58.233Z,28.42
2022-09-04T11:09:57.885Z,28.40
2022-09-04T11:13:10.738Z,28.40
2022-09-04T11:16:06.219Z,28.41
2022-09-04T11:19:26.511Z,28.40
2022-09-04T11:22:44.104Z,28.37
2022-09-04T11:26:13.915Z,28.38
2022-09-04T11:29:12.442Z,28.41
2022-09-04T11:32:27.303Z,28.34
2022-09-04T11:35:36.320Z,28.29
2022-09-04T11:38:18.532Z,28.23
2022-09-04T11:41:32.454Z,28.19
2022-09-04T11:45:00.588Z,28.23
2022-09-04T11:48:21.147Z,28.32
2022-09-04T11:51:07.458Z,28.44
2022-09-04T11:54:10.461Z,28.61
2022-09-04T11:57:04.075Z,28.80
2022-09-04T12:00:11.755Z,28.96
2022-09-04T12:03:27.233Z,29.10
2022-09-04T12:06:23.832Z,29.27
2022-09-04T12:10:01.056Z,29.48
2022-09-04T12:12:48.695Z,29.65
2022-09-04T12:15:56.193Z,29.65
2022-09-04T12:19:42.364Z,29.70
2022-09-04T12:22:51.808Z,29.76
2022-09-04T12:25:49.691Z,29.82
2022-09-04T12:29:05.925Z,29.90
2022-09-04T12:32:21.854Z,29.90
2022-09-04T12:35:43.149Z,29.93
2022-09-04T12:39:00.471Z,30.00
2022-09-04T12:41:36.996Z,30.10
2022-09-04T12:44:15.670Z,30.23
2022-09-04T12:47:07.801Z,30.39
2022-09-04T12:50:05.895Z,30.56
2022-09-04T12:52:52.850Z,30.74
2022-09-04T12:55:33.440Z,30.93
2022-09-04T12:58:15.808Z,31.12
2022-09-04T13:00:56.236Z,31.27
2022-09-04T13:03:38.363Z,31.38
2022-09-04T13:06:27.251Z,31.45
2022-09-04T13:09:13.744Z,31.41
2022-09-04T13:11:57.847Z,31.36
2022-09-04T13:15:19.561Z,31.24
2022-09-04T13:17:59.315Z,31.08
2022-09-04T13:20:36.181Z,30.94
2022-09-04T13:23:27.377Z,30.78
2022-09-04T13:26:18.442Z,30.69
2022-09-04T13:28:58.387Z,30.65
2022-09-04T13:31:48.540Z,30.60
2022-09-04T13:34:26.476Z,30.56
2022-09-04T13:37:07.633Z,30.50
2022-09-04T13:40:13.078Z,30.43
2022-09-04T13:43:34.935Z,30.33
2022-09-04T13:46:11.578Z,30.21
2022-09-04T13:48:46.235Z,30.12
2022-09-04T13:51:19.749Z,30.05
2022-09-04T13:54:05.327Z,29.95
2022-09-04T13:56:41.151Z,29.87
2022-09-04T13:59:16.215Z,29.81
2022-09-04T14:01:50.297Z,29.74
2022-09-04T14:04:26.597Z,29.68
2022-09-04T14:07:07.059Z,29.64
2022-09-04T14:09:41.436Z,29.58
2022-09-04T14:12:41.005Z,29.55
2022-09-04T14:15:49.652Z,29.51
2022-09-04T14:18:45.224Z,29.51
2022-09-04T14:21:24.949Z,29.54
2022-09-04T14:24:03.481Z,29.57
2022-09-04T14:26:44.177Z,29.60
2022-09-04T14:29:25.554Z,29.61
2022-09-04T14:32:10.716Z,29.69
2022-09-04T14:34:56.115Z,29.74
2022-09-04T14:37:48.384Z,29.82
2022-09-04T14:40:21.617Z,29.88
2022-09-04T14:42:58.365Z,29.95
2022-09-04T14:45:54.603Z,30.00
2022-09-04T14:48:24.336Z,30.06
2022-09-04T14:51:00.017Z,30.09
2022-09-04T14:53:32.375Z,30.14
2022-09-04T14:56:29.476Z,30.17
2022-09-04T14:59:08.918Z,30.20
2022-09-04T15:01:57.018Z,30.23
2022-09-04T15:04:34.122Z,30.27
2022-09-04T15:07:26.918Z,30.28
2022-09-04T15:10:07.589Z,30.30
2022-09-04T15:12:39.139Z,30.32
2022-09-04T15:15:12.670Z,30.34
2022-09-04T15:17:51.495Z,30.36
2022-09-04T15:20:23.820Z,30.35
2022-09-04T15:22:59.718Z,30.36
2022-09-04T15:25:58.734Z,30.36
2022-09-04T15:28:38.527Z,30.35
2022-09-04T15:31:16.520Z,30.32
2022-09-04T15:33:48.169Z,30.34
2022-09-04T15:36:20.957Z,30.34
2022-09-04T15:38:55.533Z,30.34
2022-09-04T15:41:36.743Z,30.32
2022-09-04T15:44:19.409Z,30.31
2022-09-04T15:47:00.685Z,30.29
2022-09-04T15:49:45.157Z,30.23
2022-09-04T15:52:33.781Z,30.21
2022-09-04T15:55:10.991Z,30.17
2022-09-04T15:57:59.845Z,30.10
2022-09-04T16:00:32.073Z,30.05
2022-09-04T16:03:12.171Z,29.94
2022-09-04T16:05:45.973Z,29.87
2022-09-04T16:08:23.692Z,29.75
2022-09-04T16:11:02.397Z,29.63
2022-09-04T16:13:46.995Z,29.50
2022-09-04T16:16:22.874Z,29.39
2022-09-04T16:19:04.710Z,29.28
2022-09-04T16:21:49.053Z,29.16
2022-09-04T16:24:20.690Z,29.08
2022-09-04T16:26:54.892Z,28.97
2022-09-04T16:29:36.653Z,28.87
2022-09-04T16:32:10.859Z,28.76
2022-09-04T16:34:47.551Z,28.67
2022-09-04T16:37:23.804Z,28.57
2022-09-04T16:40:07.277Z,28.47
2022-09-04T16:42:44.939Z,28.38
2022-09-04T16:45:18.960Z,28.27
2022-09-04T16:47:54.536Z,28.18
2022-09-04T16:50:28.592Z,28.09
2022-09-04T16:53:13.624Z,27.99
2022-09-04T16:55:50.893Z,27.89
2022-09-04T16:58:40.092Z,27.81
2022-09-04T17:01:17.742Z,27.72
2022-09-04T17:04:19.523Z,27.61
2022-09-04T17:07:03.546Z,27.54
2022-09-04T17:09:45.934Z,27.46
2022-09-04T17:12:28.934Z,27.36
2022-09-04T17:15:09.759Z,27.28
2022-09-04T17:17:42.536Z,27.21
2022-09-04T17:20:22.632Z,27.14
2022-09-04T17:29:00.160Z,27.05
2022-09-04T17:29:17.726Z,26.92
2022-09-04T17:29:33.736Z,26.80
2022-09-04T17:32:25.642Z,26.71
2022-09-04T17:40:52.073Z,26.53
2022-09-04T17:40:52.537Z,26.61
2022-09-04T17:41:40.760Z,26.40
2022-09-04T17:44:34.992Z,26.28
2022-09-04T17:47:21.316Z,26.22
2022-09-04T17:49:51.955Z,26.17
2022-09-04T17:52:28.411Z,26.09
2022-09-04T17:55:04.880Z,26.03
2022-09-04T17:57:57.166Z,25.93
2022-09-04T18:00:32.786Z,25.88
2022-09-04T18:03:08.954Z,25.80
2022-09-04T18:05:53.565Z,25.72
2022-09-04T18:08:29.740Z,25.63
2022-09-04T18:11:04.043Z,25.54
2022-09-04T18:13:40.663Z,25.44
2022-09-04T18:17:11.259Z,25.29
2022-09-04T18:19:47.286Z,25.16
2022-09-04T18:23:02.994Z,25.03
2022-09-04T18:25:36.993Z,24.94
2022-09-04T18:28:12.692Z,24.83
2022-09-04T18:37:07.403Z,24.73
2022-09-04T18:37:20.115Z,24.63
2022-09-04T18:37:44.351Z,24.58
2022-09-04T18:40:11.645Z,24.52
2022-09-04T18:50:28.924Z,24.39
2022-09-04T18:50:40.106Z,24.48
2022-09-04T18:50:50.389Z,24.42
2022-09-04T18:51:31.247Z,24.34
2022-09-04T18:54:10.402Z,24.31
2022-09-04T18:56:47.065Z,24.29
2022-09-04T18:59:20.994Z,24.27
2022-09-04T19:01:56.527Z,24.24
2022-09-04T19:04:47.663Z,24.18
2022-09-04T19:07:31.894Z,24.11
2022-09-04T19:10:10.879Z,24.05
2022-09-04T19:12:58.591Z,24.00
2022-09-04T19:15:36.789Z,23.94
2022-09-04T19:18:22.571Z,23.88
2022-09-04T19:20:56.768Z,23.84
2022-09-04T19:23:34.802Z,23.77
2022-09-04T19:26:18.725Z,23.72
2022-09-04T19:28:52.876Z,23.68
2022-09-04T19:31:32.614Z,23.63
2022-09-04T19:34:09.127Z,23.59
2022-09-04T19:36:46.478Z,23.53
2022-09-04T19:45:57.373Z,23.48
2022-09-04T19:46:16.658Z,23.35
2022-09-04T19:46:16.923Z,23.40
2022-09-04T19:48:33.492Z,23.28
2022-09-04T19:53:35.805Z,23.22
2022-09-04T19:54:10.327Z,23.16
2022-09-04T19:57:31.548Z,23.11
2022-09-04T19:59:45.524Z,23.04
2022-09-04T20:02:24.235Z,22.99
2022-09-04T20:04:57.342Z,22.94
2022-09-04T20:07:41.468Z,22.89
2022-09-04T20:10:20.078Z,22.84
2022-09-04T20:12:56.284Z,22.81
2022-09-04T20:15:31.821Z,22.75
2022-09-04T20:18:12.362Z,22.72
2022-09-04T20:20:56.334Z,22.69
2022-09-04T20:23:34.159Z,22.65
2022-09-04T20:26:19.556Z,22.59
2022-09-04T20:29:08.417Z,22.54
2022-09-04T20:31:49.435Z,22.49
2022-09-04T20:34:28.354Z,22.44
2022-09-04T20:37:20.033Z,22.39
2022-09-04T20:40:01.199Z,22.33
2022-09-04T20:42:35.842Z,22.30
2022-09-04T20:47:41.022Z,22.26
2022-09-04T20:52:55.269Z,22.19
2022-09-04T20:52:55.661Z,22.15
2022-09-04T20:54:28.450Z,22.09
2022-09-04T21:00:10.746Z,22.06
2022-09-04T21:03:09.575Z,22.00
2022-09-04T21:03:12.538Z,21.95
2022-09-04T21:06:07.289Z,21.90
2022-09-04T21:08:46.658Z,21.86
2022-09-04T21:11:41.685Z,21.83
2022-09-04T21:14:14.192Z,21.78
2022-09-04T21:17:34.041Z,21.73
2022-09-04T21:20:36.513Z,21.67
2022-09-04T21:24:32.642Z,21.61
2022-09-04T21:27:58.014Z,21.54
2022-09-04T21:30:50.903Z,21.50
2022-09-04T21:33:29.937Z,21.48
2022-09-04T21:36:25.383Z,21.45
2022-09-04T21:39:43.648Z,21.38
2022-09-04T21:42:50.564Z,21.32
2022-09-04T21:45:40.674Z,21.27
2022-09-04T21:48:45.811Z,21.23
2022-09-04T21:51:44.361Z,21.16
2022-09-04T21:57:08.952Z,21.13
2022-09-04T22:02:38.834Z,21.05
2022-09-04T22:02:49.762Z,21.01
2022-09-04T22:04:47.281Z,20.96
2022-09-04T22:13:26.239Z,20.94
2022-09-04T22:13:42.098Z,20.91
2022-09-04T22:13:50.312Z,20.86
2022-09-04T22:16:41.878Z,20.81
2022-09-04T22:19:42.290Z,20.77
2022-09-04T22:22:49.771Z,20.74
2022-09-04T22:25:46.183Z,20.70
2022-09-04T22:28:55.929Z,20.67
2022-09-04T22:32:04.214Z,20.64
2022-09-04T22:35:35.668Z,20.59
2022-09-04T22:38:54.668Z,20.53
2022-09-04T22:41:59.889Z,20.48
2022-09-04T22:44:46.762Z,20.46
2022-09-04T22:47:35.911Z,20.45
2022-09-04T22:50:50.882Z,20.40
2022-09-04T22:53:47.599Z,20.34
2022-09-04T22:56:24.213Z,20.34
2022-09-04T22:59:52.941Z,20.28
2022-09-04T23:03:10.189Z,20.22
2022-09-04T23:06:27.423Z,20.21
2022-09-04T23:13:44.006Z,20.17
2022-09-04T23:13:57.111Z,20.13
2022-09-04T23:16:36.601Z,20.08
2022-09-04T23:24:42.463Z,20.07
2022-09-04T23:26:41.493Z,20.04
2022-09-04T23:26:50.368Z,20.00
2022-09-04T23:29:23.281Z,19.96
2022-09-04T23:32:22.459Z,19.95
2022-09-04T23:35:14.912Z,19.91
2022-09-04T23:38:27.540Z,19.88
2022-09-04T23:40:58.331Z,19.88
2022-09-04T23:44:16.851Z,19.85
2022-09-04T23:47:48.162Z,19.80
2022-09-04T23:50:31.253Z,19.76
2022-09-04T23:53:13.296Z,19.75
2022-09-04T23:56:12.469Z,19.72
2022-09-04T23:59:12.391Z,19.70
